Marble Falls, TX

11:43 AM CDT on August 25, 2016 (GMT -0500)
Central | | Change Station

Elev 902 ft 30.57 °N, 98.27 °W | Updated 2 days ago

Partly Cloudy
Partly Cloudy
89 °F
Feels Like 95 °F
N
5
Wind Variable Wind from SE
Gusts mph

Today
High -- | Low -- °F
--% Chance of Precip.
Yesterday
High -- | Low -- °F
Precip. -- in
Pressure 30.13 in
Visibility 10.0 miles
Clouds Clear
Heat Index 95 °F
Dew Point 69 °F
Humidity 51%
Rainfall in
Snow Depth Not available.
7:05 AM 8:03 PM
Last Quarter, 44% visible
METAR KDZB 251635Z AUTO 17004KT 10SM CLR 30/20 A3013 RMK AO2 T02950196
Pressure 30.13 in
Visibility 10.0 miles
Clouds Clear
Heat Index 95 °F
Dew Point 69 °F
Humidity 51%
Rainfall in
Snow Depth Not available.
7:05 AM 8:03 PM
Last Quarter, 44% visible
METAR KDZB 251635Z AUTO 17004KT 10SM CLR 30/20 A3013 RMK AO2 T02950196

10-Day Weather Forecast

Almanac

Astronomy

Aug. 25, 2016 Rise Set
Actual Time
Civil Twilight
Nautical Twilight
Astronomical Twilight
Moon
Length of Visible Light
Length of Day
Tomorrow will be .
, % of the Moon is Illuminated

Today's Extremes

State Highs State Lows

Community

WunderPhotos

Upload Photos

1,934,869 photos uploaded!

WunderBlog® & News

Nearby

Air Quality

  Air Quality AQ Index Pollutant
Not available.

Snow Depth

Station Depth Elevation

Earthquake Activity

City Distance Mag. Time & Date
Minimum magnitude displayed is 2.5.

Coastal Water Temperatures

Place Temperature

Stations

Nearby Weather Stations

Station Location Temp. Windchill Dew Point Humidity Wind Precip. Elev Updated Type
                   

Watches & Warnings

There are currently no watches in effect.